Pagrindinis puslapis
METAR-TAF:

METAR-TAF

Oro uostai :

Verona, Italija

platuma: 45-23N, ilguma: 010-52E, Aukštis: 67 m

Dabartinis oras

Ataskaita buvo paskelbta 31 minutes, ne 03:50 UTC
Vėjas 4 kt iš Šiaurės Vakarų
Temperatūra 6°C
Drėgmė 87%
Slėgis 1021 hPa
Matomumas: 8000 m
Su prošvaistėmis ne aukštis 4000 ft
lietus

METAR: LIPX 180350Z 31004KT 8000 -RA BKN040 06/04 Q1021

Laikas: 05:21 (04:21 UTC)

Prognozė

Ataskaita buvo paskelbta 2 valandos ir 21 minutes, ne 02:00 UTC
Prognozė galioja nuo 18 metu 03 UTC su 18 metu 12 UTC
Vėjas 5 kt nuo kintamojo kryptimis
Matomumas: 5000 m
Išsisklaidę debesys ne aukštis 2500 ft
Su prošvaistėmis ne aukštis 5000 ft
lietus

TAF: LIPX 180200Z 1803/1812 VRB05KT 5000 RA SCT025 BKN050

Orai ataskaitas ir orų prognozės (METAR, TAF).

turimą stotys yra geltonos ir raudonos taškus žemėlapyje.

Perkelti pele per norėdami pamatyti stoties vardą.

Tada spustelėkite, norėdami matyti oro stebėjimo ir prognozės.

Norėdami pakeisti žemėlapį: spustelėkite ant žalios mygtukų su juodo kryžiaus žemyn,; žalią mygtuką su brūkšneliu, jei norite nutolinti; arba žalių rodyklių gretimoms žemėlapius.


METAR-TAF: